sensor_id;sensor_type;location;lat;lon;timestamp;P1;durP1;ratioP1;P2;durP2;ratioP2
75297;SDS011;63896;45.990;18.688;2023-06-22T00:00:16;19.58;;;16.10;;
75297;SDS011;63896;45.990;18.688;2023-06-22T00:03:20;20.80;;;16.02;;
75297;SDS011;63896;45.990;18.688;2023-06-22T00:06:24;23.65;;;16.50;;
75297;SDS011;63896;45.990;18.688;2023-06-22T00:09:26;24.52;;;16.35;;
75297;SDS011;63896;45.990;18.688;2023-06-22T00:12:29;21.50;;;16.60;;
75297;SDS011;63896;45.990;18.688;2023-06-22T00:15:32;22.88;;;17.40;;
75297;SDS011;63896;45.990;18.688;2023-06-22T00:18:36;22.23;;;17.10;;
75297;SDS011;63896;45.990;18.688;2023-06-22T00:21:39;25.20;;;18.45;;
75297;SDS011;63896;45.990;18.688;2023-06-22T00:24:41;24.48;;;17.55;;
75297;SDS011;63896;45.990;18.688;2023-06-22T00:27:44;24.03;;;17.70;;
75297;SDS011;63896;45.990;18.688;2023-06-22T00:30:48;23.40;;;16.88;;
75297;SDS011;63896;45.990;18.688;2023-06-22T00:33:53;23.23;;;17.17;;
75297;SDS011;63896;45.990;18.688;2023-06-22T00:36:56;22.20;;;17.17;;
75297;SDS011;63896;45.990;18.688;2023-06-22T00:39:58;26.52;;;17.15;;
75297;SDS011;63896;45.990;18.688;2023-06-22T00:43:01;21.83;;;16.47;;
75297;SDS011;63896;45.990;18.688;2023-06-22T00:46:05;22.98;;;17.85;;
75297;SDS011;63896;45.990;18.688;2023-06-22T00:49:08;26.27;;;17.58;;
75297;SDS011;63896;45.990;18.688;2023-06-22T00:52:11;21.02;;;16.58;;
75297;SDS011;63896;45.990;18.688;2023-06-22T00:55:16;24.30;;;17.90;;
75297;SDS011;63896;45.990;18.688;2023-06-22T00:58:21;23.80;;;17.77;;
75297;SDS011;63896;45.990;18.688;2023-06-22T01:01:24;24.52;;;17.58;;
75297;SDS011;63896;45.990;18.688;2023-06-22T01:04:34;22.70;;;17.23;;
75297;SDS011;63896;45.990;18.688;2023-06-22T01:07:39;30.33;;;18.15;;
75297;SDS011;63896;45.990;18.688;2023-06-22T01:10:55;30.25;;;19.55;;
75297;SDS011;63896;45.990;18.688;2023-06-22T01:14:15;26.90;;;19.67;;
75297;SDS011;63896;45.990;18.688;2023-06-22T01:17:25;27.48;;;19.55;;
75297;SDS011;63896;45.990;18.688;2023-06-22T01:20:29;27.30;;;20.17;;
75297;SDS011;63896;45.990;18.688;2023-06-22T01:27:28;27.65;;;19.80;;
75297;SDS011;63896;45.990;18.688;2023-06-22T01:30:39;28.80;;;20.03;;
75297;SDS011;63896;45.990;18.688;2023-06-22T01:33:43;29.15;;;20.05;;
75297;SDS011;63896;45.990;18.688;2023-06-22T01:36:49;30.52;;;19.95;;
75297;SDS011;63896;45.990;18.688;2023-06-22T01:39:54;28.83;;;19.15;;
75297;SDS011;63896;45.990;18.688;2023-06-22T01:42:59;27.88;;;20.10;;
75297;SDS011;63896;45.990;18.688;2023-06-22T01:46:03;25.87;;;19.10;;
75297;SDS011;63896;45.990;18.688;2023-06-22T01:49:06;31.58;;;19.60;;
75297;SDS011;63896;45.990;18.688;2023-06-22T01:52:11;26.48;;;21.10;;
75297;SDS011;63896;45.990;18.688;2023-06-22T01:55:14;31.05;;;21.17;;
75297;SDS011;63896;45.990;18.688;2023-06-22T01:58:16;30.38;;;20.27;;
75297;SDS011;63896;45.990;18.688;2023-06-22T02:01:27;28.93;;;20.23;;
75297;SDS011;63896;45.990;18.688;2023-06-22T02:05:08;26.48;;;19.92;;
75297;SDS011;63896;45.990;18.688;2023-06-22T02:08:10;26.48;;;17.83;;
75297;SDS011;63896;45.990;18.688;2023-06-22T02:11:19;23.17;;;17.95;;
75297;SDS011;63896;45.990;18.688;2023-06-22T02:14:24;24.30;;;17.85;;
75297;SDS011;63896;45.990;18.688;2023-06-22T02:17:29;23.13;;;16.80;;
75297;SDS011;63896;45.990;18.688;2023-06-22T02:20:36;23.95;;;17.70;;
75297;SDS011;63896;45.990;18.688;2023-06-22T02:23:40;26.13;;;17.35;;
75297;SDS011;63896;45.990;18.688;2023-06-22T02:26:43;23.20;;;17.27;;
75297;SDS011;63896;45.990;18.688;2023-06-22T02:29:47;21.13;;;15.88;;
75297;SDS011;63896;45.990;18.688;2023-06-22T02:32:50;23.10;;;15.77;;
75297;SDS011;63896;45.990;18.688;2023-06-22T02:36:01;22.40;;;16.42;;
75297;SDS011;63896;45.990;18.688;2023-06-22T02:39:07;24.75;;;16.58;;
75297;SDS011;63896;45.990;18.688;2023-06-22T02:42:11;22.05;;;16.67;;
75297;SDS011;63896;45.990;18.688;2023-06-22T02:45:14;22.10;;;16.15;;
75297;SDS011;63896;45.990;18.688;2023-06-22T02:48:18;25.60;;;16.77;;
75297;SDS011;63896;45.990;18.688;2023-06-22T02:51:21;23.08;;;16.50;;
75297;SDS011;63896;45.990;18.688;2023-06-22T02:54:23;27.20;;;17.38;;
75297;SDS011;63896;45.990;18.688;2023-06-22T02:57:29;24.85;;;17.83;;
75297;SDS011;63896;45.990;18.688;2023-06-22T03:00:32;28.50;;;17.83;;
75297;SDS011;63896;45.990;18.688;2023-06-22T03:03:35;27.53;;;17.57;;
75297;SDS011;63896;45.990;18.688;2023-06-22T03:06:38;22.92;;;17.67;;
75297;SDS011;63896;45.990;18.688;2023-06-22T03:09:43;25.27;;;18.58;;
75297;SDS011;63896;45.990;18.688;2023-06-22T03:12:46;28.65;;;18.65;;
75297;SDS011;63896;45.990;18.688;2023-06-22T03:15:49;23.17;;;18.63;;
75297;SDS011;63896;45.990;18.688;2023-06-22T03:18:52;25.93;;;17.87;;
75297;SDS011;63896;45.990;18.688;2023-06-22T03:21:55;24.63;;;18.83;;
75297;SDS011;63896;45.990;18.688;2023-06-22T03:25:00;28.23;;;19.15;;
75297;SDS011;63896;45.990;18.688;2023-06-22T03:28:03;27.45;;;18.90;;
75297;SDS011;63896;45.990;18.688;2023-06-22T03:31:06;25.90;;;18.55;;
75297;SDS011;63896;45.990;18.688;2023-06-22T03:34:10;30.43;;;18.77;;
75297;SDS011;63896;45.990;18.688;2023-06-22T03:37:13;28.00;;;18.50;;
75297;SDS011;63896;45.990;18.688;2023-06-22T03:40:17;28.48;;;19.40;;
75297;SDS011;63896;45.990;18.688;2023-06-22T03:43:20;30.20;;;19.30;;
75297;SDS011;63896;45.990;18.688;2023-06-22T03:46:23;26.23;;;18.58;;
75297;SDS011;63896;45.990;18.688;2023-06-22T03:49:26;24.20;;;18.80;;
75297;SDS011;63896;45.990;18.688;2023-06-22T03:52:29;24.40;;;17.85;;
75297;SDS011;63896;45.990;18.688;2023-06-22T03:55:33;25.98;;;18.48;;
75297;SDS011;63896;45.990;18.688;2023-06-22T03:58:36;26.80;;;17.77;;
75297;SDS011;63896;45.990;18.688;2023-06-22T04:01:45;28.80;;;18.70;;
75297;SDS011;63896;45.990;18.688;2023-06-22T04:04:48;25.77;;;18.47;;
75297;SDS011;63896;45.990;18.688;2023-06-22T04:07:51;26.55;;;18.30;;
75297;SDS011;63896;45.990;18.688;2023-06-22T04:10:54;28.73;;;19.35;;
75297;SDS011;63896;45.990;18.688;2023-06-22T04:13:57;32.38;;;19.27;;
75297;SDS011;63896;45.990;18.688;2023-06-22T04:16:59;31.67;;;18.95;;
75297;SDS011;63896;45.990;18.688;2023-06-22T04:20:02;29.47;;;18.90;;
75297;SDS011;63896;45.990;18.688;2023-06-22T04:23:06;25.48;;;18.23;;
75297;SDS011;63896;45.990;18.688;2023-06-22T04:26:09;25.88;;;18.75;;
75297;SDS011;63896;45.990;18.688;2023-06-22T04:29:12;27.30;;;18.88;;
75297;SDS011;63896;45.990;18.688;2023-06-22T04:32:15;25.98;;;18.20;;
75297;SDS011;63896;45.990;18.688;2023-06-22T04:35:18;28.13;;;18.03;;
75297;SDS011;63896;45.990;18.688;2023-06-22T04:38:21;25.17;;;18.08;;
75297;SDS011;63896;45.990;18.688;2023-06-22T04:41:24;28.73;;;18.08;;
75297;SDS011;63896;45.990;18.688;2023-06-22T04:44:27;23.70;;;17.55;;
75297;SDS011;63896;45.990;18.688;2023-06-22T04:47:30;27.35;;;17.33;;
75297;SDS011;63896;45.990;18.688;2023-06-22T04:50:33;26.27;;;16.90;;
75297;SDS011;63896;45.990;18.688;2023-06-22T04:53:35;25.88;;;16.02;;
75297;SDS011;63896;45.990;18.688;2023-06-22T04:56:38;26.45;;;16.98;;
75297;SDS011;63896;45.990;18.688;2023-06-22T04:59:43;25.23;;;16.00;;
75297;SDS011;63896;45.990;18.688;2023-06-22T05:02:46;25.30;;;16.00;;
75297;SDS011;63896;45.990;18.688;2023-06-22T05:05:49;28.57;;;15.03;;
75297;SDS011;63896;45.990;18.688;2023-06-22T05:08:56;21.40;;;14.88;;
75297;SDS011;63896;45.990;18.688;2023-06-22T05:12:02;20.35;;;14.70;;
75297;SDS011;63896;45.990;18.688;2023-06-22T05:15:10;18.65;;;14.20;;
75297;SDS011;63896;45.990;18.688;2023-06-22T05:18:12;26.20;;;14.68;;
75297;SDS011;63896;45.990;18.688;2023-06-22T05:21:15;22.13;;;14.23;;
75297;SDS011;63896;45.990;18.688;2023-06-22T05:24:18;18.33;;;14.45;;
75297;SDS011;63896;45.990;18.688;2023-06-22T05:27:21;20.85;;;14.60;;
75297;SDS011;63896;45.990;18.688;2023-06-22T05:30:24;17.55;;;13.50;;
75297;SDS011;63896;45.990;18.688;2023-06-22T05:33:27;18.20;;;14.20;;
75297;SDS011;63896;45.990;18.688;2023-06-22T05:36:30;18.47;;;13.83;;
75297;SDS011;63896;45.990;18.688;2023-06-22T05:39:32;17.77;;;13.38;;
75297;SDS011;63896;45.990;18.688;2023-06-22T05:42:35;18.73;;;14.93;;
75297;SDS011;63896;45.990;18.688;2023-06-22T05:45:38;21.67;;;14.20;;
75297;SDS011;63896;45.990;18.688;2023-06-22T05:48:41;26.42;;;13.80;;
75297;SDS011;63896;45.990;18.688;2023-06-22T05:51:43;26.87;;;13.70;;
75297;SDS011;63896;45.990;18.688;2023-06-22T05:54:46;18.67;;;12.75;;
75297;SDS011;63896;45.990;18.688;2023-06-22T05:57:52;19.67;;;13.73;;
75297;SDS011;63896;45.990;18.688;2023-06-22T06:00:55;18.88;;;13.55;;
75297;SDS011;63896;45.990;18.688;2023-06-22T06:03:59;17.10;;;13.38;;
75297;SDS011;63896;45.990;18.688;2023-06-22T06:07:03;18.87;;;13.37;;
75297;SDS011;63896;45.990;18.688;2023-06-22T06:10:20;19.25;;;13.95;;
75297;SDS011;63896;45.990;18.688;2023-06-22T06:13:24;19.10;;;13.32;;
75297;SDS011;63896;45.990;18.688;2023-06-22T06:16:30;19.98;;;13.27;;
75297;SDS011;63896;45.990;18.688;2023-06-22T06:19:33;22.17;;;13.77;;
75297;SDS011;63896;45.990;18.688;2023-06-22T06:22:36;18.53;;;13.37;;
75297;SDS011;63896;45.990;18.688;2023-06-22T06:29:32;20.65;;;14.13;;
75297;SDS011;63896;45.990;18.688;2023-06-22T06:32:35;19.92;;;15.10;;
75297;SDS011;63896;45.990;18.688;2023-06-22T06:35:37;20.58;;;14.43;;
75297;SDS011;63896;45.990;18.688;2023-06-22T06:38:40;18.90;;;14.47;;
75297;SDS011;63896;45.990;18.688;2023-06-22T06:41:43;18.88;;;13.70;;
75297;SDS011;63896;45.990;18.688;2023-06-22T06:44:50;19.13;;;14.77;;
75297;SDS011;63896;45.990;18.688;2023-06-22T06:48:01;17.65;;;13.57;;
75297;SDS011;63896;45.990;18.688;2023-06-22T06:51:26;20.38;;;14.38;;
75297;SDS011;63896;45.990;18.688;2023-06-22T06:54:29;18.97;;;14.50;;
75297;SDS011;63896;45.990;18.688;2023-06-22T06:57:32;17.63;;;14.55;;
75297;SDS011;63896;45.990;18.688;2023-06-22T07:00:36;17.55;;;14.55;;
75297;SDS011;63896;45.990;18.688;2023-06-22T07:03:39;20.15;;;14.57;;
75297;SDS011;63896;45.990;18.688;2023-06-22T07:06:43;23.20;;;14.35;;
75297;SDS011;63896;45.990;18.688;2023-06-22T07:09:48;16.73;;;13.50;;
75297;SDS011;63896;45.990;18.688;2023-06-22T07:12:54;15.63;;;13.68;;
75297;SDS011;63896;45.990;18.688;2023-06-22T07:16:01;17.45;;;14.30;;
75297;SDS011;63896;45.990;18.688;2023-06-22T07:19:04;18.13;;;13.45;;
75297;SDS011;63896;45.990;18.688;2023-06-22T07:22:09;17.58;;;13.63;;
75297;SDS011;63896;45.990;18.688;2023-06-22T07:25:14;19.93;;;14.30;;
75297;SDS011;63896;45.990;18.688;2023-06-22T07:28:17;15.68;;;13.00;;
75297;SDS011;63896;45.990;18.688;2023-06-22T07:31:23;17.30;;;13.32;;
75297;SDS011;63896;45.990;18.688;2023-06-22T07:34:29;15.40;;;12.50;;
75297;SDS011;63896;45.990;18.688;2023-06-22T07:37:32;13.52;;;12.20;;
75297;SDS011;63896;45.990;18.688;2023-06-22T07:40:36;16.67;;;12.33;;
75297;SDS011;63896;45.990;18.688;2023-06-22T07:43:39;19.60;;;13.05;;
75297;SDS011;63896;45.990;18.688;2023-06-22T07:46:42;16.73;;;12.15;;
75297;SDS011;63896;45.990;18.688;2023-06-22T07:49:45;14.63;;;12.43;;
75297;SDS011;63896;45.990;18.688;2023-06-22T07:52:48;14.07;;;12.23;;
75297;SDS011;63896;45.990;18.688;2023-06-22T07:55:52;15.27;;;12.03;;
75297;SDS011;63896;45.990;18.688;2023-06-22T07:58:54;17.42;;;12.57;;
75297;SDS011;63896;45.990;18.688;2023-06-22T08:02:00;15.40;;;12.73;;
75297;SDS011;63896;45.990;18.688;2023-06-22T08:05:09;19.10;;;12.98;;
75297;SDS011;63896;45.990;18.688;2023-06-22T08:08:23;14.85;;;12.48;;
75297;SDS011;63896;45.990;18.688;2023-06-22T08:11:26;13.53;;;12.10;;
75297;SDS011;63896;45.990;18.688;2023-06-22T08:14:29;16.48;;;12.10;;
75297;SDS011;63896;45.990;18.688;2023-06-22T08:17:32;15.05;;;12.15;;
75297;SDS011;63896;45.990;18.688;2023-06-22T08:20:36;13.73;;;11.45;;
75297;SDS011;63896;45.990;18.688;2023-06-22T08:23:39;14.07;;;12.13;;
75297;SDS011;63896;45.990;18.688;2023-06-22T08:26:41;19.23;;;11.87;;
75297;SDS011;63896;45.990;18.688;2023-06-22T08:29:44;18.30;;;12.40;;
75297;SDS011;63896;45.990;18.688;2023-06-22T08:32:52;18.85;;;12.00;;
75297;SDS011;63896;45.990;18.688;2023-06-22T08:35:56;15.05;;;11.85;;
75297;SDS011;63896;45.990;18.688;2023-06-22T08:39:00;17.35;;;12.60;;
75297;SDS011;63896;45.990;18.688;2023-06-22T08:42:05;15.37;;;12.13;;
75297;SDS011;63896;45.990;18.688;2023-06-22T08:45:08;13.48;;;11.65;;
75297;SDS011;63896;45.990;18.688;2023-06-22T08:48:12;14.57;;;11.63;;
75297;SDS011;63896;45.990;18.688;2023-06-22T08:51:18;14.05;;;12.25;;
75297;SDS011;63896;45.990;18.688;2023-06-22T08:54:21;16.85;;;11.68;;
75297;SDS011;63896;45.990;18.688;2023-06-22T08:57:23;19.27;;;11.47;;
75297;SDS011;63896;45.990;18.688;2023-06-22T09:00:26;14.93;;;10.77;;
75297;SDS011;63896;45.990;18.688;2023-06-22T09:03:31;14.40;;;11.65;;
75297;SDS011;63896;45.990;18.688;2023-06-22T09:06:35;20.63;;;11.80;;
75297;SDS011;63896;45.990;18.688;2023-06-22T09:09:40;16.48;;;11.15;;
75297;SDS011;63896;45.990;18.688;2023-06-22T09:12:43;13.23;;;11.40;;
75297;SDS011;63896;45.990;18.688;2023-06-22T09:15:46;12.07;;;10.60;;
75297;SDS011;63896;45.990;18.688;2023-06-22T09:18:49;13.32;;;11.23;;
75297;SDS011;63896;45.990;18.688;2023-06-22T09:21:52;19.10;;;11.38;;
75297;SDS011;63896;45.990;18.688;2023-06-22T09:24:55;17.67;;;10.70;;
75297;SDS011;63896;45.990;18.688;2023-06-22T09:27:58;14.93;;;10.60;;
75297;SDS011;63896;45.990;18.688;2023-06-22T09:31:01;16.65;;;10.63;;
75297;SDS011;63896;45.990;18.688;2023-06-22T09:34:06;13.85;;;10.82;;
75297;SDS011;63896;45.990;18.688;2023-06-22T09:37:09;13.40;;;11.20;;
75297;SDS011;63896;45.990;18.688;2023-06-22T09:40:12;13.27;;;11.02;;
75297;SDS011;63896;45.990;18.688;2023-06-22T09:43:18;12.17;;;10.63;;
75297;SDS011;63896;45.990;18.688;2023-06-22T09:46:21;12.00;;;9.93;;
75297;SDS011;63896;45.990;18.688;2023-06-22T09:49:30;14.32;;;10.75;;
75297;SDS011;63896;45.990;18.688;2023-06-22T09:52:49;16.33;;;10.95;;
75297;SDS011;63896;45.990;18.688;2023-06-22T09:55:57;11.73;;;10.00;;
75297;SDS011;63896;45.990;18.688;2023-06-22T09:59:00;17.13;;;9.83;;
75297;SDS011;63896;45.990;18.688;2023-06-22T10:02:19;14.13;;;9.80;;
75297;SDS011;63896;45.990;18.688;2023-06-22T10:05:22;13.55;;;9.38;;
75297;SDS011;63896;45.990;18.688;2023-06-22T10:08:25;13.10;;;9.25;;
75297;SDS011;63896;45.990;18.688;2023-06-22T10:11:28;10.43;;;9.35;;
75297;SDS011;63896;45.990;18.688;2023-06-22T10:14:33;13.30;;;9.27;;
75297;SDS011;63896;45.990;18.688;2023-06-22T10:17:36;12.35;;;9.43;;
75297;SDS011;63896;45.990;18.688;2023-06-22T10:20:38;13.23;;;9.90;;
75297;SDS011;63896;45.990;18.688;2023-06-22T10:23:41;14.20;;;9.60;;
75297;SDS011;63896;45.990;18.688;2023-06-22T10:26:44;10.68;;;9.35;;
75297;SDS011;63896;45.990;18.688;2023-06-22T10:29:48;12.50;;;9.10;;
75297;SDS011;63896;45.990;18.688;2023-06-22T10:32:51;19.08;;;9.50;;
75297;SDS011;63896;45.990;18.688;2023-06-22T10:36:06;13.73;;;9.50;;
75297;SDS011;63896;45.990;18.688;2023-06-22T10:39:12;13.02;;;10.15;;
75297;SDS011;63896;45.990;18.688;2023-06-22T10:42:15;12.25;;;10.57;;
75297;SDS011;63896;45.990;18.688;2023-06-22T10:45:17;14.33;;;10.00;;
75297;SDS011;63896;45.990;18.688;2023-06-22T10:48:21;11.48;;;10.27;;
75297;SDS011;63896;45.990;18.688;2023-06-22T10:51:24;12.60;;;11.40;;
75297;SDS011;63896;45.990;18.688;2023-06-22T10:54:27;14.55;;;11.20;;
75297;SDS011;63896;45.990;18.688;2023-06-22T10:57:31;15.68;;;11.13;;
75297;SDS011;63896;45.990;18.688;2023-06-22T11:00:34;13.73;;;10.33;;
75297;SDS011;63896;45.990;18.688;2023-06-22T11:03:37;14.82;;;10.43;;
75297;SDS011;63896;45.990;18.688;2023-06-22T11:06:40;15.25;;;10.05;;
75297;SDS011;63896;45.990;18.688;2023-06-22T11:09:43;14.73;;;10.77;;
75297;SDS011;63896;45.990;18.688;2023-06-22T11:12:46;16.58;;;10.85;;
75297;SDS011;63896;45.990;18.688;2023-06-22T11:15:49;12.00;;;10.23;;
75297;SDS011;63896;45.990;18.688;2023-06-22T11:18:51;15.25;;;10.25;;
75297;SDS011;63896;45.990;18.688;2023-06-22T11:21:54;12.05;;;10.70;;
75297;SDS011;63896;45.990;18.688;2023-06-22T11:24:57;11.55;;;10.15;;
75297;SDS011;63896;45.990;18.688;2023-06-22T11:28:03;15.82;;;10.93;;
75297;SDS011;63896;45.990;18.688;2023-06-22T11:31:06;17.13;;;10.50;;
75297;SDS011;63896;45.990;18.688;2023-06-22T11:34:26;16.17;;;10.90;;
75297;SDS011;63896;45.990;18.688;2023-06-22T11:37:30;16.95;;;11.10;;
75297;SDS011;63896;45.990;18.688;2023-06-22T11:40:33;12.95;;;10.52;;
75297;SDS011;63896;45.990;18.688;2023-06-22T11:43:39;14.85;;;10.32;;
75297;SDS011;63896;45.990;18.688;2023-06-22T11:46:42;14.67;;;10.10;;
75297;SDS011;63896;45.990;18.688;2023-06-22T11:49:44;20.63;;;11.30;;
75297;SDS011;63896;45.990;18.688;2023-06-22T11:52:48;16.85;;;11.55;;
75297;SDS011;63896;45.990;18.688;2023-06-22T11:55:50;13.95;;;10.30;;
75297;SDS011;63896;45.990;18.688;2023-06-22T11:58:54;14.63;;;10.40;;
75297;SDS011;63896;45.990;18.688;2023-06-22T12:01:57;11.67;;;10.17;;
75297;SDS011;63896;45.990;18.688;2023-06-22T12:05:00;12.70;;;10.32;;
75297;SDS011;63896;45.990;18.688;2023-06-22T12:08:07;13.00;;;10.50;;
75297;SDS011;63896;45.990;18.688;2023-06-22T12:11:10;16.38;;;10.80;;
75297;SDS011;63896;45.990;18.688;2023-06-22T12:14:12;15.35;;;10.48;;
75297;SDS011;63896;45.990;18.688;2023-06-22T12:17:15;11.50;;;9.97;;
75297;SDS011;63896;45.990;18.688;2023-06-22T12:20:18;12.02;;;10.48;;
75297;SDS011;63896;45.990;18.688;2023-06-22T12:23:21;15.75;;;10.63;;
75297;SDS011;63896;45.990;18.688;2023-06-22T12:26:24;16.77;;;10.32;;
75297;SDS011;63896;45.990;18.688;2023-06-22T12:29:27;13.93;;;10.90;;
75297;SDS011;63896;45.990;18.688;2023-06-22T12:32:30;12.97;;;9.70;;
75297;SDS011;63896;45.990;18.688;2023-06-22T12:35:32;13.18;;;9.68;;
75297;SDS011;63896;45.990;18.688;2023-06-22T12:38:35;17.42;;;9.60;;
75297;SDS011;63896;45.990;18.688;2023-06-22T12:41:38;13.80;;;9.63;;
75297;SDS011;63896;45.990;18.688;2023-06-22T12:44:41;14.80;;;9.43;;
75297;SDS011;63896;45.990;18.688;2023-06-22T12:47:44;15.60;;;10.00;;
75297;SDS011;63896;45.990;18.688;2023-06-22T12:50:47;16.42;;;9.98;;
75297;SDS011;63896;45.990;18.688;2023-06-22T12:53:50;13.20;;;10.50;;
75297;SDS011;63896;45.990;18.688;2023-06-22T12:56:53;13.95;;;9.57;;
75297;SDS011;63896;45.990;18.688;2023-06-22T12:59:57;12.13;;;10.10;;
75297;SDS011;63896;45.990;18.688;2023-06-22T13:03:02;11.77;;;10.13;;
75297;SDS011;63896;45.990;18.688;2023-06-22T13:06:05;13.90;;;9.15;;
75297;SDS011;63896;45.990;18.688;2023-06-22T13:09:09;14.35;;;9.65;;
75297;SDS011;63896;45.990;18.688;2023-06-22T13:12:15;12.63;;;9.32;;
75297;SDS011;63896;45.990;18.688;2023-06-22T13:15:18;15.20;;;9.50;;
75297;SDS011;63896;45.990;18.688;2023-06-22T13:18:21;15.57;;;9.33;;
75297;SDS011;63896;45.990;18.688;2023-06-22T13:21:23;16.33;;;9.70;;
75297;SDS011;63896;45.990;18.688;2023-06-22T13:24:26;16.98;;;10.30;;
75297;SDS011;63896;45.990;18.688;2023-06-22T13:27:29;15.45;;;9.07;;
75297;SDS011;63896;45.990;18.688;2023-06-22T13:30:32;16.00;;;9.73;;
75297;SDS011;63896;45.990;18.688;2023-06-22T13:33:35;22.43;;;9.20;;
75297;SDS011;63896;45.990;18.688;2023-06-22T13:36:37;12.52;;;8.93;;
75297;SDS011;63896;45.990;18.688;2023-06-22T13:39:41;12.77;;;8.57;;
75297;SDS011;63896;45.990;18.688;2023-06-22T13:42:44;13.85;;;9.00;;
75297;SDS011;63896;45.990;18.688;2023-06-22T13:45:47;14.02;;;9.60;;
75297;SDS011;63896;45.990;18.688;2023-06-22T13:48:49;15.77;;;9.97;;
75297;SDS011;63896;45.990;18.688;2023-06-22T13:51:52;14.75;;;10.18;;
75297;SDS011;63896;45.990;18.688;2023-06-22T13:54:55;20.17;;;10.35;;
75297;SDS011;63896;45.990;18.688;2023-06-22T13:57:58;13.73;;;9.82;;
75297;SDS011;63896;45.990;18.688;2023-06-22T14:01:00;12.27;;;8.90;;
75297;SDS011;63896;45.990;18.688;2023-06-22T14:04:03;19.87;;;9.87;;
75297;SDS011;63896;45.990;18.688;2023-06-22T14:07:07;15.95;;;9.43;;
75297;SDS011;63896;45.990;18.688;2023-06-22T14:10:09;15.20;;;10.30;;
75297;SDS011;63896;45.990;18.688;2023-06-22T14:13:12;17.20;;;10.00;;
75297;SDS011;63896;45.990;18.688;2023-06-22T14:16:15;15.23;;;9.85;;
75297;SDS011;63896;45.990;18.688;2023-06-22T14:19:17;15.43;;;9.60;;
75297;SDS011;63896;45.990;18.688;2023-06-22T14:22:21;13.63;;;9.98;;
75297;SDS011;63896;45.990;18.688;2023-06-22T14:25:24;11.65;;;9.43;;
75297;SDS011;63896;45.990;18.688;2023-06-22T14:28:27;15.57;;;10.05;;
75297;SDS011;63896;45.990;18.688;2023-06-22T14:31:30;13.23;;;9.77;;
75297;SDS011;63896;45.990;18.688;2023-06-22T14:34:33;15.53;;;9.60;;
75297;SDS011;63896;45.990;18.688;2023-06-22T14:37:38;13.10;;;10.35;;
75297;SDS011;63896;45.990;18.688;2023-06-22T14:40:41;13.07;;;9.43;;
75297;SDS011;63896;45.990;18.688;2023-06-22T14:44:03;14.48;;;9.07;;
75297;SDS011;63896;45.990;18.688;2023-06-22T14:47:06;11.10;;;8.95;;
75297;SDS011;63896;45.990;18.688;2023-06-22T14:50:09;17.40;;;9.30;;
75297;SDS011;63896;45.990;18.688;2023-06-22T14:53:12;13.23;;;9.27;;
75297;SDS011;63896;45.990;18.688;2023-06-22T14:56:16;17.75;;;10.07;;
75297;SDS011;63896;45.990;18.688;2023-06-22T14:59:19;16.08;;;10.02;;
75297;SDS011;63896;45.990;18.688;2023-06-22T15:02:22;13.23;;;10.40;;
75297;SDS011;63896;45.990;18.688;2023-06-22T15:05:25;14.53;;;10.80;;
75297;SDS011;63896;45.990;18.688;2023-06-22T15:08:28;11.35;;;10.02;;
75297;SDS011;63896;45.990;18.688;2023-06-22T15:11:31;12.73;;;10.10;;
75297;SDS011;63896;45.990;18.688;2023-06-22T15:14:35;12.10;;;9.18;;
75297;SDS011;63896;45.990;18.688;2023-06-22T15:17:38;15.85;;;10.07;;
75297;SDS011;63896;45.990;18.688;2023-06-22T15:20:41;16.20;;;10.00;;
75297;SDS011;63896;45.990;18.688;2023-06-22T15:23:47;14.95;;;10.18;;
75297;SDS011;63896;45.990;18.688;2023-06-22T15:26:50;15.57;;;10.13;;
75297;SDS011;63896;45.990;18.688;2023-06-22T15:29:53;12.93;;;10.57;;
75297;SDS011;63896;45.990;18.688;2023-06-22T15:32:56;17.55;;;10.68;;
75297;SDS011;63896;45.990;18.688;2023-06-22T15:36:02;16.13;;;10.70;;
75297;SDS011;63896;45.990;18.688;2023-06-22T15:39:07;15.65;;;10.63;;
75297;SDS011;63896;45.990;18.688;2023-06-22T15:42:09;16.02;;;10.75;;
75297;SDS011;63896;45.990;18.688;2023-06-22T15:45:12;14.88;;;10.30;;
75297;SDS011;63896;45.990;18.688;2023-06-22T15:48:15;15.57;;;10.82;;
75297;SDS011;63896;45.990;18.688;2023-06-22T15:51:18;15.73;;;10.17;;
75297;SDS011;63896;45.990;18.688;2023-06-22T15:54:21;13.07;;;10.43;;
75297;SDS011;63896;45.990;18.688;2023-06-22T15:57:24;19.52;;;10.98;;
75297;SDS011;63896;45.990;18.688;2023-06-22T16:00:28;15.55;;;10.75;;
75297;SDS011;63896;45.990;18.688;2023-06-22T16:03:32;18.05;;;10.75;;
75297;SDS011;63896;45.990;18.688;2023-06-22T16:06:34;19.00;;;10.90;;
75297;SDS011;63896;45.990;18.688;2023-06-22T16:09:38;15.23;;;10.63;;
75297;SDS011;63896;45.990;18.688;2023-06-22T16:12:42;14.43;;;10.80;;
75297;SDS011;63896;45.990;18.688;2023-06-22T16:15:46;17.40;;;10.68;;
75297;SDS011;63896;45.990;18.688;2023-06-22T16:18:49;13.23;;;10.02;;
75297;SDS011;63896;45.990;18.688;2023-06-22T16:21:52;18.10;;;10.70;;
75297;SDS011;63896;45.990;18.688;2023-06-22T16:24:54;16.05;;;10.43;;
75297;SDS011;63896;45.990;18.688;2023-06-22T16:27:58;18.30;;;10.82;;
75297;SDS011;63896;45.990;18.688;2023-06-22T16:31:01;14.43;;;10.50;;
75297;SDS011;63896;45.990;18.688;2023-06-22T16:34:03;18.25;;;10.40;;
75297;SDS011;63896;45.990;18.688;2023-06-22T16:37:06;14.80;;;9.57;;
75297;SDS011;63896;45.990;18.688;2023-06-22T16:40:09;17.48;;;10.63;;
75297;SDS011;63896;45.990;18.688;2023-06-22T16:43:12;18.58;;;10.48;;
75297;SDS011;63896;45.990;18.688;2023-06-22T16:46:15;12.73;;;10.30;;
75297;SDS011;63896;45.990;18.688;2023-06-22T16:49:18;18.42;;;11.23;;
75297;SDS011;63896;45.990;18.688;2023-06-22T16:52:21;19.17;;;10.53;;
75297;SDS011;63896;45.990;18.688;2023-06-22T16:55:23;12.35;;;10.25;;
75297;SDS011;63896;45.990;18.688;2023-06-22T16:58:26;15.45;;;11.15;;
75297;SDS011;63896;45.990;18.688;2023-06-22T17:01:31;13.05;;;10.80;;
75297;SDS011;63896;45.990;18.688;2023-06-22T17:04:35;19.58;;;10.98;;
75297;SDS011;63896;45.990;18.688;2023-06-22T17:07:39;13.77;;;11.20;;
75297;SDS011;63896;45.990;18.688;2023-06-22T17:10:49;12.63;;;10.45;;
75297;SDS011;63896;45.990;18.688;2023-06-22T17:13:53;14.95;;;10.40;;
75297;SDS011;63896;45.990;18.688;2023-06-22T17:16:56;12.52;;;10.20;;
75297;SDS011;63896;45.990;18.688;2023-06-22T17:20:00;11.70;;;10.48;;
75297;SDS011;63896;45.990;18.688;2023-06-22T17:23:03;13.10;;;10.27;;
75297;SDS011;63896;45.990;18.688;2023-06-22T17:26:06;14.75;;;10.18;;
75297;SDS011;63896;45.990;18.688;2023-06-22T17:29:09;17.75;;;10.55;;
75297;SDS011;63896;45.990;18.688;2023-06-22T17:32:12;16.90;;;10.55;;
75297;SDS011;63896;45.990;18.688;2023-06-22T17:35:15;16.20;;;10.80;;
75297;SDS011;63896;45.990;18.688;2023-06-22T17:38:21;18.87;;;10.47;;
75297;SDS011;63896;45.990;18.688;2023-06-22T17:41:31;15.68;;;10.23;;
75297;SDS011;63896;45.990;18.688;2023-06-22T17:44:35;16.52;;;10.80;;
75297;SDS011;63896;45.990;18.688;2023-06-22T17:47:38;12.63;;;9.88;;
75297;SDS011;63896;45.990;18.688;2023-06-22T17:50:41;15.38;;;10.43;;